KRID/RID METAR and TAF weather

Enter ICAO airport designator
Station Type Date Time Source
KRID METAR 2019/08/25 19:55 UTC NOAA

KRID 251955Z AUTO 11008KT 10SM CLR 25/16 A3008 RMK AO2


Station Type Date Time Source
KRID Decoded METAR 2019/08/25 19:55 UTC NOAA

Station name not available
Aug 25, 2019 - 03:55 PM EDT / 2019.08.25 1955 UTC
Wind: from the ESE (110 degrees) at 9 MPH (8 KT):0
Visibility: 10 mile(s):0
Sky conditions: clear
Temperature: 77 F (25 C)
Dew Point: 60 F (16 C)
Relative Humidity: 57%
Pressure (altimeter): 30.08 in. Hg (1018 hPa)
ob: KRID 251955Z AUTO 11008KT 10SM CLR 25/16 A3008 RMK AO2
cycle: 20

Station Type Date Time Source
KRID TAF UTC NOAA

Error!

Example: see airport list